Time;durP1;ratioP1;P1;durP2;ratioP2;P2;SDS_P1;SDS_P2;PMS_P1;PMS_P2;Temp;Humidity;BMP_temperature;BMP_pressure;BME280_temperature;BME280_humidity;BME280_pressure;Samples;Min_cycle;Max_cycle;Signal;HPM_P1;HPM_P2
2023/01/23 00:00:24;;;;;;;;;;;4.50;99.90;;;;;;5036969;28;19974;-74
2023/01/23 00:02:50;;;;;;;;;;;3.10;99.90;;;;;;5060473;28;19920;-74
2023/01/23 00:05:21;;;;;;;;;;;3.20;99.90;;;;;;5038429;28;19928;-74
2023/01/23 00:07:47;;;;;;;;;;;3.20;99.90;;;;;;5062021;28;19928;-74
2023/01/23 00:10:13;;;;;;;;;;;4.40;99.90;;;;;;5062687;28;19920;-74
2023/01/23 00:12:42;;;;;;;;;;;4.30;99.90;;;;;;5038149;28;20019;-74
2023/01/23 00:15:08;;;;;;;;;;;3.10;99.90;;;;;;5060534;28;19987;-73
2023/01/23 00:17:33;;;;;;;;;;;3.10;99.90;;;;;;5063214;28;20335;-74
2023/01/23 00:19:59;;;;;;;;;;;4.80;99.90;;;;;;5038191;28;19920;-74
2023/01/23 00:22:25;;;;;;;;;;;4.80;99.90;;;;;;5059801;28;19920;-74
2023/01/23 00:24:50;;;;;;;;;;;3.10;99.90;;;;;;5063150;28;20127;-74
2023/01/23 00:27:16;;;;;;;;;;;5.60;99.90;;;;;;5059849;28;20283;-74
2023/01/23 00:29:41;;;;;;;;;;;4.60;99.90;;;;;;5060892;28;19959;-75
2023/01/23 00:32:07;;;;;;;;;;;3.10;99.90;;;;;;5044804;28;20295;-75
2023/01/23 00:34:36;;;;;;;;;;;5.10;99.90;;;;;;5060511;28;20003;-75
2023/01/23 00:37:02;;;;;;;;;;;3.40;99.90;;;;;;5033003;28;19929;-75
2023/01/23 00:39:28;;;;;;;;;;;4.60;99.90;;;;;;5039731;28;19998;-75
2023/01/23 00:41:56;;;;;;;;;;;3.10;99.90;;;;;;5037539;28;19927;-75
2023/01/23 00:44:22;;;;;;;;;;;3.00;99.90;;;;;;5034196;28;19921;-75
2023/01/23 00:46:47;;;;;;;;;;;5.30;99.90;;;;;;5039579;28;19928;-75
2023/01/23 00:49:16;;;;;;;;;;;2.80;99.90;;;;;;5042687;28;19990;-73
2023/01/23 00:51:42;;;;;;;;;;;3.10;99.90;;;;;;5031052;28;20370;-73
2023/01/23 00:54:08;;;;;;;;;;;4.70;99.90;;;;;;5041849;28;19968;-74
2023/01/23 00:56:34;;;;;;;;;;;5.10;99.90;;;;;;5036398;28;19957;-73
2023/01/23 00:59:00;;;;;;;;;;;4.80;99.90;;;;;;5041845;28;20017;-74
2023/01/23 01:01:27;;;;;;;;;;;3.10;99.90;;;;;;5030289;28;20432;-74
2023/01/23 01:03:53;;;;;;;;;;;2.90;99.90;;;;;;5040017;28;19921;-73
2023/01/23 01:06:19;;;;;;;;;;;3.10;99.90;;;;;;5031226;28;20034;-73
2023/01/23 01:08:44;;;;;;;;;;;5.50;99.90;;;;;;5044401;28;19921;-74
2023/01/23 01:11:10;;;;;;;;;;;4.80;99.90;;;;;;5045692;28;19936;-73
2023/01/23 01:13:36;;;;;;;;;;;5.20;99.90;;;;;;5035761;28;19921;-73
2023/01/23 01:16:01;;;;;;;;;;;5.20;99.90;;;;;;5043728;28;19975;-73
2023/01/23 01:18:27;;;;;;;;;;;3.10;99.90;;;;;;5046227;28;20320;-74
2023/01/23 01:20:53;;;;;;;;;;;4.70;99.90;;;;;;5044027;28;19964;-74
2023/01/23 01:23:19;;;;;;;;;;;3.10;99.90;;;;;;5037727;28;19986;-74
2023/01/23 01:25:45;;;;;;;;;;;3.70;99.90;;;;;;5043065;28;19921;-74
2023/01/23 01:28:11;;;;;;;;;;;3.20;99.90;;;;;;5045824;28;19931;-75
2023/01/23 01:30:37;;;;;;;;;;;4.60;99.90;;;;;;5028553;28;19972;-75
2023/01/23 01:33:02;;;;;;;;;;;4.60;99.90;;;;;;5044537;28;20275;-73
2023/01/23 01:35:28;;;;;;;;;;;3.10;99.90;;;;;;5044337;28;19921;-73
2023/01/23 01:37:53;;;;;;;;;;;4.20;99.90;;;;;;5036958;28;19921;-73
2023/01/23 01:40:25;;;;;;;;;;;3.40;99.90;;;;;;5043897;28;19921;-74
2023/01/23 01:42:58;;;;;;;;;;;3.10;99.90;;;;;;5043488;28;19921;-74
2023/01/23 01:45:42;;;;;;;;;;;3.10;99.90;;;;;;5057475;28;20004;-74
2023/01/23 01:48:07;;;;;;;;;;;3.10;99.90;;;;;;5065503;28;19973;-73
2023/01/23 01:50:34;;;;;;;;;;;4.70;99.90;;;;;;5063920;28;19928;-74
2023/01/23 01:52:59;;;;;;;;;;;4.10;99.90;;;;;;5064559;28;19920;-75
2023/01/23 01:55:25;;;;;;;;;;;4.70;99.90;;;;;;5064060;28;20334;-74
2023/01/23 01:57:53;;;;;;;;;;;3.00;99.90;;;;;;5063754;28;20359;-73
2023/01/23 02:00:19;;;;;;;;;;;4.10;99.90;;;;;;5039182;28;19920;-74
2023/01/23 02:02:48;;;;;;;;;;;3.20;99.90;;;;;;5061399;28;19928;-74
2023/01/23 02:05:15;;;;;;;;;;;3.00;99.90;;;;;;5040627;28;19920;-74
2023/01/23 02:07:44;;;;;;;;;;;3.00;99.90;;;;;;5039541;28;19927;-74
2023/01/23 02:10:09;;;;;;;;;;;5.60;99.90;;;;;;5054759;28;19947;-74
2023/01/23 02:12:37;;;;;;;;;;;3.00;99.90;;;;;;5063110;28;19920;-74
2023/01/23 02:15:04;;;;;;;;;;;4.40;99.90;;;;;;5064610;28;19928;-74
2023/01/23 02:17:30;;;;;;;;;;;3.00;99.90;;;;;;5045514;28;19920;-74
2023/01/23 02:20:17;;;;;;;;;;;3.00;99.90;;;;;;5063927;28;19920;-74
2023/01/23 02:23:01;;;;;;;;;;;3.00;99.90;;;;;;5058775;28;19927;-74
2023/01/23 02:25:39;;;;;;;;;;;3.00;99.90;;;;;;5045228;28;19924;-74
2023/01/23 02:28:06;;;;;;;;;;;3.00;99.90;;;;;;5028847;28;19960;-74
2023/01/23 02:30:32;;;;;;;;;;;3.00;99.90;;;;;;5063990;28;20417;-74
2023/01/23 02:33:08;;;;;;;;;;;3.00;99.90;;;;;;5064448;28;20280;-74
2023/01/23 02:35:34;;;;;;;;;;;3.00;99.90;;;;;;5061386;28;20249;-74
2023/01/23 02:38:02;;;;;;;;;;;2.80;99.90;;;;;;5065401;28;19916;-73
2023/01/23 02:40:31;;;;;;;;;;;5.60;99.90;;;;;;5062848;28;19947;-73
2023/01/23 02:42:57;;;;;;;;;;;3.00;99.90;;;;;;5061826;28;19938;-73
2023/01/23 02:45:23;;;;;;;;;;;3.00;99.90;;;;;;5063734;28;19924;-73
2023/01/23 02:47:49;;;;;;;;;;;3.00;99.90;;;;;;5064138;28;19921;-73
2023/01/23 02:50:17;;;;;;;;;;;5.20;99.90;;;;;;5062679;28;19921;-74
2023/01/23 02:52:43;;;;;;;;;;;3.00;99.90;;;;;;5064056;28;19921;-73
2023/01/23 02:55:08;;;;;;;;;;;2.60;99.90;;;;;;5062366;28;19928;-74
2023/01/23 02:57:34;;;;;;;;;;;3.00;99.90;;;;;;5046449;28;19973;-73
2023/01/23 03:02:44;;;;;;;;;;;3.60;99.90;;;;;;5060900;28;19921;-73
2023/01/23 03:05:09;;;;;;;;;;;4.90;99.90;;;;;;5058632;28;19921;-74
2023/01/23 03:07:35;;;;;;;;;;;4.50;99.90;;;;;;5032340;28;20358;-73
2023/01/23 03:10:01;;;;;;;;;;;5.10;99.90;;;;;;5061499;28;19946;-74
2023/01/23 03:12:26;;;;;;;;;;;5.00;99.90;;;;;;5064248;28;19927;-74
2023/01/23 03:14:53;;;;;;;;;;;2.90;99.90;;;;;;5062410;28;20279;-73
2023/01/23 03:17:19;;;;;;;;;;;5.10;99.90;;;;;;5063725;28;20038;-73
2023/01/23 03:19:45;;;;;;;;;;;2.90;99.90;;;;;;5062983;28;19936;-73
2023/01/23 03:22:10;;;;;;;;;;;4.30;99.90;;;;;;5063734;28;20360;-74
2023/01/23 03:24:36;;;;;;;;;;;2.90;99.90;;;;;;5032940;28;19920;-74
2023/01/23 03:27:02;;;;;;;;;;;4.40;99.90;;;;;;5038257;28;20375;-73
2023/01/23 03:32:12;;;;;;;;;;;2.80;99.90;;;;;;5059721;28;19924;-73
2023/01/23 03:34:37;;;;;;;;;;;3.70;99.90;;;;;;5030596;28;20338;-73
2023/01/23 03:37:04;;;;;;;;;;;3.40;99.90;;;;;;5045965;28;19927;-73
2023/01/23 03:42:14;;;;;;;;;;;2.80;99.90;;;;;;5063000;28;19980;-75
2023/01/23 03:44:39;;;;;;;;;;;2.80;99.90;;;;;;5060529;28;19963;-75
2023/01/23 03:47:05;;;;;;;;;;;2.90;99.90;;;;;;5061365;28;19925;-75
2023/01/23 03:49:30;;;;;;;;;;;4.80;99.90;;;;;;5063543;28;20453;-75
2023/01/23 03:51:56;;;;;;;;;;;4.30;99.90;;;;;;5061423;28;19920;-75
2023/01/23 03:54:22;;;;;;;;;;;3.70;99.90;;;;;;5059884;28;19943;-75
2023/01/23 03:56:47;;;;;;;;;;;3.30;99.90;;;;;;5031864;28;19960;-75
2023/01/23 03:59:13;;;;;;;;;;;2.80;99.90;;;;;;5061685;28;20023;-74
2023/01/23 04:01:38;;;;;;;;;;;2.80;99.90;;;;;;5058810;28;19932;-75
2023/01/23 04:04:04;;;;;;;;;;;4.80;99.90;;;;;;5057475;28;20384;-75
2023/01/23 04:06:29;;;;;;;;;;;2.80;99.90;;;;;;5060139;28;20031;-75
2023/01/23 04:08:57;;;;;;;;;;;2.80;99.90;;;;;;5037231;28;19921;-75
2023/01/23 04:11:23;;;;;;;;;;;2.40;99.90;;;;;;5060066;28;20395;-75
2023/01/23 04:13:48;;;;;;;;;;;2.70;99.90;;;;;;5063573;28;19928;-75
2023/01/23 04:16:14;;;;;;;;;;;5.30;99.90;;;;;;5059861;28;19920;-75
2023/01/23 04:18:39;;;;;;;;;;;2.80;99.90;;;;;;5063101;28;20433;-75
2023/01/23 04:21:05;;;;;;;;;;;4.00;99.90;;;;;;5062710;28;19921;-75
2023/01/23 04:23:30;;;;;;;;;;;2.80;99.90;;;;;;5062276;28;19920;-74
2023/01/23 04:25:56;;;;;;;;;;;5.10;99.90;;;;;;5060963;28;19921;-73
2023/01/23 04:28:22;;;;;;;;;;;2.70;99.90;;;;;;5062547;28;19968;-74
2023/01/23 04:30:49;;;;;;;;;;;2.80;99.90;;;;;;5060236;28;19921;-74
2023/01/23 04:33:14;;;;;;;;;;;2.60;99.90;;;;;;5056189;28;19943;-74
2023/01/23 04:35:40;;;;;;;;;;;2.50;99.90;;;;;;5062007;28;20375;-74
2023/01/23 04:38:05;;;;;;;;;;;3.60;99.90;;;;;;5061293;28;19970;-74
2023/01/23 04:40:31;;;;;;;;;;;2.80;99.90;;;;;;5062027;28;19925;-74
2023/01/23 04:42:56;;;;;;;;;;;4.20;99.90;;;;;;5060912;28;19927;-73
2023/01/23 04:45:22;;;;;;;;;;;2.50;99.90;;;;;;5030151;28;20383;-73
2023/01/23 04:47:47;;;;;;;;;;;3.10;99.90;;;;;;5063248;28;19952;-74
2023/01/23 04:50:13;;;;;;;;;;;2.80;99.90;;;;;;5059473;28;19990;-74
2023/01/23 04:52:38;;;;;;;;;;;2.80;99.90;;;;;;5029652;28;20375;-75
2023/01/23 04:55:04;;;;;;;;;;;3.20;99.90;;;;;;5062153;28;19939;-75
2023/01/23 04:57:30;;;;;;;;;;;2.80;99.90;;;;;;5042598;28;19999;-74
2023/01/23 04:59:55;;;;;;;;;;;4.40;99.90;;;;;;5037772;28;20399;-74
2023/01/23 05:02:21;;;;;;;;;;;2.80;99.90;;;;;;5060918;28;20296;-74
2023/01/23 05:04:46;;;;;;;;;;;2.80;99.90;;;;;;5061961;28;19916;-74
2023/01/23 05:07:12;;;;;;;;;;;4.80;99.90;;;;;;5054612;28;20023;-74
2023/01/23 05:09:38;;;;;;;;;;;4.70;99.90;;;;;;5058023;28;19927;-74
2023/01/23 05:12:04;;;;;;;;;;;2.80;99.90;;;;;;5049772;28;19927;-74
2023/01/23 05:14:29;;;;;;;;;;;2.80;99.90;;;;;;5026962;28;20007;-73
2023/01/23 05:16:55;;;;;;;;;;;4.90;99.90;;;;;;5034202;28;19927;-76
2023/01/23 05:19:20;;;;;;;;;;;2.80;99.90;;;;;;5019015;28;19928;-75
2023/01/23 05:21:46;;;;;;;;;;;4.40;99.90;;;;;;5059100;28;19920;-77
2023/01/23 05:24:11;;;;;;;;;;;5.00;99.90;;;;;;5026656;28;20325;-80
2023/01/23 05:26:37;;;;;;;;;;;2.70;99.90;;;;;;5054789;28;20336;-72
2023/01/23 05:29:03;;;;;;;;;;;2.70;99.90;;;;;;5060467;28;19960;-73
2023/01/23 05:31:28;;;;;;;;;;;2.80;99.90;;;;;;5041666;28;19921;-82
2023/01/23 05:33:54;;;;;;;;;;;2.70;99.90;;;;;;5056062;28;20031;-79
2023/01/23 05:36:19;;;;;;;;;;;2.80;99.90;;;;;;5059344;28;20393;-76
2023/01/23 05:38:45;;;;;;;;;;;2.80;99.90;;;;;;5059631;28;20297;-82
2023/01/23 05:41:11;;;;;;;;;;;2.70;99.90;;;;;;5037739;28;19944;-76
2023/01/23 05:43:42;;;;;;;;;;;2.70;99.90;;;;;;5026000;28;19924;-78
2023/01/23 05:46:08;;;;;;;;;;;3.00;99.90;;;;;;5026190;28;19921;-82
2023/01/23 05:48:34;;;;;;;;;;;5.00;99.90;;;;;;5028907;28;20295;-83
2023/01/23 05:51:01;;;;;;;;;;;2.40;99.90;;;;;;5063334;28;19920;-86
2023/01/23 05:53:27;;;;;;;;;;;2.70;99.90;;;;;;5036280;28;19959;-84
2023/01/23 05:55:52;;;;;;;;;;;2.70;99.90;;;;;;5063824;28;19968;-76
2023/01/23 05:58:18;;;;;;;;;;;4.50;99.90;;;;;;5057869;28;19963;-73
2023/01/23 06:00:46;;;;;;;;;;;2.70;99.90;;;;;;5059764;28;19928;-76
2023/01/23 06:03:12;;;;;;;;;;;3.60;99.90;;;;;;5065255;28;19920;-77
2023/01/23 06:05:39;;;;;;;;;;;3.00;99.90;;;;;;5063136;28;19920;-73
2023/01/23 06:08:07;;;;;;;;;;;4.80;99.90;;;;;;5061038;28;19920;-76
2023/01/23 06:10:35;;;;;;;;;;;2.70;99.90;;;;;;5035879;28;19988;-75
2023/01/23 06:13:00;;;;;;;;;;;2.70;99.90;;;;;;5066464;28;19920;-79
2023/01/23 06:15:26;;;;;;;;;;;3.80;99.90;;;;;;5041000;28;19928;-80
2023/01/23 06:17:51;;;;;;;;;;;5.20;99.90;;;;;;5042166;28;19924;-77
2023/01/23 06:20:17;;;;;;;;;;;5.10;99.90;;;;;;5062235;28;19974;-82
2023/01/23 06:22:42;;;;;;;;;;;2.70;99.90;;;;;;5032872;28;20007;-74
2023/01/23 06:25:08;;;;;;;;;;;2.70;99.90;;;;;;5047179;28;20276;-79
2023/01/23 06:27:34;;;;;;;;;;;2.70;99.90;;;;;;5032919;28;19924;-79
2023/01/23 06:29:59;;;;;;;;;;;4.90;99.90;;;;;;5064379;28;19920;-72
2023/01/23 06:32:25;;;;;;;;;;;4.70;99.90;;;;;;5062120;28;20340;-72
2023/01/23 06:34:50;;;;;;;;;;;2.70;99.90;;;;;;5061512;28;20331;-78
2023/01/23 06:37:16;;;;;;;;;;;2.70;99.90;;;;;;5045975;28;19928;-80
2023/01/23 06:39:41;;;;;;;;;;;2.60;99.90;;;;;;5039471;28;19929;-75
2023/01/23 06:42:09;;;;;;;;;;;2.60;99.90;;;;;;5063586;28;19946;-75
2023/01/23 06:44:35;;;;;;;;;;;2.60;99.90;;;;;;5062602;28;20311;-72
2023/01/23 06:47:00;;;;;;;;;;;2.60;99.90;;;;;;5046858;28;19920;-84
2023/01/23 06:49:29;;;;;;;;;;;3.20;99.90;;;;;;5063911;28;19956;-76
2023/01/23 06:51:54;;;;;;;;;;;2.60;99.90;;;;;;5061917;28;19967;-78
2023/01/23 06:54:20;;;;;;;;;;;2.80;99.90;;;;;;5027111;28;19967;-74
2023/01/23 06:56:46;;;;;;;;;;;4.00;99.90;;;;;;5064320;28;19960;-84
2023/01/23 06:59:11;;;;;;;;;;;4.60;99.90;;;;;;5045239;28;19924;-75
2023/01/23 07:01:37;;;;;;;;;;;2.60;99.90;;;;;;5063268;28;19921;-78
2023/01/23 07:04:02;;;;;;;;;;;5.10;99.90;;;;;;5063286;28;19920;-75
2023/01/23 07:06:29;;;;;;;;;;;2.60;99.90;;;;;;5062017;28;19928;-84
2023/01/23 07:08:54;;;;;;;;;;;2.50;99.90;;;;;;5040947;28;19928;-80
2023/01/23 07:11:20;;;;;;;;;;;4.20;99.90;;;;;;5044292;28;19927;-77
2023/01/23 07:13:45;;;;;;;;;;;4.40;99.90;;;;;;5041938;28;19921;-77
2023/01/23 07:16:11;;;;;;;;;;;3.00;99.90;;;;;;5036608;28;20384;-77
2023/01/23 07:18:37;;;;;;;;;;;3.70;99.90;;;;;;5054400;28;19955;-77
2023/01/23 07:21:04;;;;;;;;;;;4.30;99.90;;;;;;5033458;28;20012;-77
2023/01/23 07:23:32;;;;;;;;;;;2.50;99.90;;;;;;5045282;28;19920;-77
2023/01/23 07:25:59;;;;;;;;;;;2.50;99.90;;;;;;5061961;28;19928;-78
2023/01/23 07:28:24;;;;;;;;;;;2.50;99.90;;;;;;5064323;28;19927;-84
2023/01/23 07:30:52;;;;;;;;;;;4.90;99.90;;;;;;5038887;28;19920;-76
2023/01/23 07:33:18;;;;;;;;;;;2.50;99.90;;;;;;5034286;28;19921;-72
2023/01/23 07:35:43;;;;;;;;;;;3.20;99.90;;;;;;5057498;28;20056;-72
2023/01/23 07:38:09;;;;;;;;;;;2.50;99.90;;;;;;5059079;28;19916;-72
2023/01/23 07:40:37;;;;;;;;;;;2.50;99.90;;;;;;5059155;28;19991;-75
2023/01/23 07:43:03;;;;;;;;;;;5.20;99.90;;;;;;5027845;28;19927;-75
2023/01/23 07:45:29;;;;;;;;;;;4.40;99.90;;;;;;5052932;28;19920;-77
2023/01/23 07:47:55;;;;;;;;;;;2.50;99.90;;;;;;5033857;28;20011;-74
2023/01/23 07:50:20;;;;;;;;;;;2.20;99.90;;;;;;5034741;28;20446;-77
2023/01/23 07:52:46;;;;;;;;;;;2.60;99.90;;;;;;5057287;28;19925;-76
2023/01/23 07:55:11;;;;;;;;;;;4.50;99.90;;;;;;5041111;28;19929;-75
2023/01/23 07:57:37;;;;;;;;;;;4.90;99.90;;;;;;5034331;28;20360;-75
2023/01/23 08:00:03;;;;;;;;;;;4.00;99.90;;;;;;5031246;28;19920;-75
2023/01/23 08:02:28;;;;;;;;;;;2.60;99.90;;;;;;5056976;28;20368;-76
2023/01/23 08:04:54;;;;;;;;;;;3.50;99.90;;;;;;5038433;28;19928;-77
2023/01/23 08:07:20;;;;;;;;;;;2.60;99.90;;;;;;5057549;28;19943;-75
2023/01/23 08:09:45;;;;;;;;;;;2.60;99.90;;;;;;5058467;28;19920;-77
2023/01/23 08:12:11;;;;;;;;;;;4.50;99.90;;;;;;5031145;28;20292;-76
2023/01/23 08:14:44;;;;;;;;;;;4.20;99.90;;;;;;5053186;28;19928;-76
2023/01/23 08:17:09;;;;;;;;;;;2.70;99.90;;;;;;5032328;28;19926;-76
2023/01/23 08:19:37;;;;;;;;;;;2.70;99.90;;;;;;5056663;28;20372;-74
2023/01/23 08:22:03;;;;;;;;;;;5.30;99.90;;;;;;5060498;28;19932;-73
2023/01/23 08:24:28;;;;;;;;;;;2.70;99.90;;;;;;5037667;28;20292;-73
2023/01/23 08:26:54;;;;;;;;;;;2.90;99.90;;;;;;5030709;28;19921;-73
2023/01/23 08:29:20;;;;;;;;;;;4.10;99.90;;;;;;5031403;28;19927;-72
2023/01/23 08:31:45;;;;;;;;;;;4.80;99.90;;;;;;5055525;28;19920;-76
2023/01/23 08:34:11;;;;;;;;;;;4.70;99.90;;;;;;5045491;28;19920;-75
2023/01/23 08:36:36;;;;;;;;;;;5.00;99.90;;;;;;5037643;28;19959;-75
2023/01/23 08:39:02;;;;;;;;;;;5.40;99.90;;;;;;5030298;28;19924;-76
2023/01/23 08:41:27;;;;;;;;;;;2.80;99.90;;;;;;5060049;28;19932;-75
2023/01/23 08:43:53;;;;;;;;;;;2.90;99.90;;;;;;5062375;28;19928;-75
2023/01/23 08:46:19;;;;;;;;;;;4.80;99.90;;;;;;5061389;28;19921;-74
2023/01/23 08:48:44;;;;;;;;;;;2.90;99.90;;;;;;5060436;28;19925;-75
2023/01/23 08:51:11;;;;;;;;;;;2.90;99.90;;;;;;5063814;28;20008;-76
2023/01/23 08:53:38;;;;;;;;;;;2.90;99.90;;;;;;5063289;28;19926;-75
2023/01/23 08:56:09;;;;;;;;;;;4.90;99.90;;;;;;5062823;28;20015;-75
2023/01/23 08:58:35;;;;;;;;;;;3.00;99.90;;;;;;5025722;28;19924;-75
2023/01/23 09:01:00;;;;;;;;;;;2.90;99.90;;;;;;5045786;28;20030;-75
2023/01/23 09:03:26;;;;;;;;;;;4.90;99.90;;;;;;5059284;28;19916;-75
2023/01/23 09:05:51;;;;;;;;;;;3.00;99.90;;;;;;5062435;28;19946;-75
2023/01/23 09:08:17;;;;;;;;;;;5.30;99.90;;;;;;5042937;28;19967;-75
2023/01/23 09:10:43;;;;;;;;;;;4.90;99.90;;;;;;5037254;28;19927;-75
2023/01/23 09:13:08;;;;;;;;;;;3.00;99.90;;;;;;5037684;28;19920;-75
2023/01/23 09:15:36;;;;;;;;;;;3.00;99.90;;;;;;5032422;28;19931;-73
2023/01/23 09:18:02;;;;;;;;;;;3.10;99.90;;;;;;5031985;28;20339;-74
2023/01/23 09:20:28;;;;;;;;;;;3.10;99.90;;;;;;5036929;28;19921;-74
2023/01/23 09:22:53;;;;;;;;;;;3.10;99.90;;;;;;5055608;28;19928;-74
2023/01/23 09:25:19;;;;;;;;;;;4.80;99.90;;;;;;5059330;28;20296;-74
2023/01/23 09:27:44;;;;;;;;;;;3.20;99.90;;;;;;5025740;28;19921;-74
2023/01/23 09:30:10;;;;;;;;;;;3.10;99.90;;;;;;5037161;28;20367;-74
2023/01/23 09:32:36;;;;;;;;;;;3.20;99.90;;;;;;5047043;28;19920;-74
2023/01/23 09:35:01;;;;;;;;;;;4.80;99.90;;;;;;5034296;28;20303;-74
2023/01/23 09:37:58;;;;;;;;;;;3.10;99.90;;;;;;5066884;28;19916;-74
2023/01/23 09:40:21;;;;;;;;;;;3.20;99.90;;;;;;5064945;28;19929;-74
2023/01/23 09:42:48;;;;;;;;;;;3.20;99.90;;;;;;5063954;28;20010;-74
2023/01/23 09:45:19;;;;;;;;;;;3.20;99.90;;;;;;5064065;28;19924;-73
2023/01/23 09:47:48;;;;;;;;;;;3.20;99.90;;;;;;5062901;28;19966;-73
2023/01/23 09:50:17;;;;;;;;;;;4.20;99.90;;;;;;5065295;28;20369;-74
2023/01/23 09:52:44;;;;;;;;;;;1.30;99.90;;;;;;5045664;28;20011;-74
2023/01/23 09:55:10;;;;;;;;;;;3.30;99.90;;;;;;5065185;28;19925;-74
2023/01/23 09:57:41;;;;;;;;;;;5.30;99.90;;;;;;5046641;28;20024;-74
2023/01/23 10:00:16;;;;;;;;;;;3.30;99.90;;;;;;5040511;28;19974;-74
2023/01/23 10:02:45;;;;;;;;;;;3.40;99.90;;;;;;5065720;28;19961;-74
2023/01/23 10:05:12;;;;;;;;;;;3.40;99.90;;;;;;5065538;28;19921;-75
2023/01/23 10:07:52;;;;;;;;;;;3.40;99.90;;;;;;5040917;28;20364;-74
2023/01/23 10:10:41;;;;;;;;;;;3.50;99.90;;;;;;5062294;28;20383;-75
2023/01/23 10:13:15;;;;;;;;;;;3.50;99.90;;;;;;5056563;28;19920;-75
2023/01/23 10:15:53;;;;;;;;;;;3.50;99.90;;;;;;5036244;28;19921;-76
2023/01/23 10:18:18;;;;;;;;;;;3.60;99.90;;;;;;5058553;28;19921;-76
2023/01/23 10:20:48;;;;;;;;;;;3.60;99.90;;;;;;5060327;28;19981;-76
2023/01/23 10:23:22;;;;;;;;;;;3.60;99.90;;;;;;5045288;28;20387;-76
2023/01/23 10:25:48;;;;;;;;;;;3.70;99.90;;;;;;5056958;28;19921;-82
2023/01/23 10:28:14;;;;;;;;;;;4.30;99.90;;;;;;5065153;28;20288;-76
2023/01/23 10:30:40;;;;;;;;;;;3.70;99.90;;;;;;5039223;28;19928;-84
2023/01/23 10:33:13;;;;;;;;;;;3.70;99.90;;;;;;5038521;28;20368;-82
2023/01/23 10:35:43;;;;;;;;;;;3.80;99.90;;;;;;5043154;28;19971;-83
2023/01/23 10:38:15;;;;;;;;;;;3.90;99.90;;;;;;5059199;28;19925;-81
2023/01/23 10:43:25;;;;;;;;;;;3.90;99.90;;;;;;5053446;28;19922;-76
2023/01/23 10:45:50;;;;;;;;;;;4.60;99.90;;;;;;5057576;28;20368;-77
2023/01/23 10:48:37;;;;;;;;;;;4.90;99.90;;;;;;5042735;28;19974;-77
2023/01/23 10:51:03;;;;;;;;;;;4.00;99.90;;;;;;5056155;28;19940;-77
2023/01/23 10:53:28;;;;;;;;;;;4.10;99.90;;;;;;5054184;28;20376;-77
2023/01/23 10:55:57;;;;;;;;;;;5.70;99.90;;;;;;5055587;28;19927;-75
2023/01/23 10:58:48;;;;;;;;;;;4.80;99.90;;;;;;5036592;28;20490;-76
2023/01/23 11:01:25;;;;;;;;;;;4.20;99.90;;;;;;5047120;28;19928;-75
2023/01/23 11:03:50;;;;;;;;;;;4.20;99.90;;;;;;5058375;28;19921;-75
2023/01/23 11:06:16;;;;;;;;;;;4.80;99.90;;;;;;5038643;28;20377;-75
2023/01/23 11:08:49;;;;;;;;;;;6.10;99.90;;;;;;5054603;28;19936;-76
2023/01/23 11:11:15;;;;;;;;;;;4.40;99.90;;;;;;5055069;28;20404;-75
2023/01/23 11:13:45;;;;;;;;;;;5.40;99.90;;;;;;5059361;28;19920;-78
2023/01/23 11:16:18;;;;;;;;;;;4.50;99.90;;;;;;5033839;28;19920;-75
2023/01/23 11:18:54;;;;;;;;;;;4.60;99.90;;;;;;5057626;28;20007;-73
2023/01/23 11:21:25;;;;;;;;;;;4.60;99.90;;;;;;5035429;28;19920;-74
2023/01/23 11:24:10;;;;;;;;;;;5.10;99.90;;;;;;5055254;28;20007;-77
2023/01/23 11:26:36;;;;;;;;;;;4.60;99.90;;;;;;5056998;28;20000;-77
2023/01/23 11:29:02;;;;;;;;;;;4.60;99.90;;;;;;5064274;28;20353;-74
2023/01/23 11:31:32;;;;;;;;;;;6.50;99.90;;;;;;5043611;28;19920;-76
2023/01/23 11:34:11;;;;;;;;;;;6.00;99.90;;;;;;5062433;28;19921;-76
2023/01/23 11:36:54;;;;;;;;;;;4.70;99.90;;;;;;5056906;28;19971;-76
2023/01/23 11:39:44;;;;;;;;;;;4.70;99.90;;;;;;5032739;28;20335;-76
2023/01/23 11:42:10;;;;;;;;;;;4.70;99.90;;;;;;5036568;28;20405;-82
2023/01/23 11:44:36;;;;;;;;;;;6.90;99.90;;;;;;5055958;28;19942;-84
2023/01/23 11:47:08;;;;;;;;;;;5.80;99.90;;;;;;5064284;28;20427;-82
2023/01/23 11:49:34;;;;;;;;;;;4.80;99.90;;;;;;5029405;28;19920;-86
2023/01/23 11:52:05;;;;;;;;;;;4.70;99.90;;;;;;5026272;28;20299;-90
2023/01/23 11:54:39;;;;;;;;;;;5.70;99.90;;;;;;5057386;28;19921;-83
2023/01/23 11:57:08;;;;;;;;;;;4.70;99.90;;;;;;5064622;28;19921;-78
2023/01/23 11:59:41;;;;;;;;;;;4.70;99.90;;;;;;5025007;28;20514;-82
2023/01/23 12:02:12;;;;;;;;;;;4.70;99.90;;;;;;5058282;28;19927;-78
2023/01/23 12:04:44;;;;;;;;;;;4.70;99.90;;;;;;5045275;28;20030;-79
2023/01/23 12:07:16;;;;;;;;;;;4.70;99.90;;;;;;5037895;28;19927;-80
2023/01/23 12:10:02;;;;;;;;;;;4.60;99.90;;;;;;5037724;28;19928;-75
2023/01/23 12:12:45;;;;;;;;;;;4.60;99.90;;;;;;4996948;28;19920;-74
2023/01/23 12:15:22;;;;;;;;;;;4.60;99.90;;;;;;5026428;28;19980;-73
2023/01/23 12:18:02;;;;;;;;;;;4.60;99.90;;;;;;5039797;28;19947;-77
2023/01/23 12:20:40;;;;;;;;;;;4.60;99.90;;;;;;5055555;28;19917;-76
2023/01/23 12:23:28;;;;;;;;;;;4.60;99.90;;;;;;5030031;28;19921;-82
2023/01/23 12:26:05;;;;;;;;;;;4.60;99.90;;;;;;5042684;28;19917;-81
2023/01/23 12:28:31;;;;;;;;;;;4.70;99.90;;;;;;5056369;28;19920;-81
2023/01/23 12:31:15;;;;;;;;;;;6.50;99.90;;;;;;5059391;28;19923;-79
2023/01/23 12:33:43;;;;;;;;;;;4.70;99.90;;;;;;5054911;28;19921;-78
2023/01/23 12:36:28;;;;;;;;;;;4.70;99.90;;;;;;5030289;28;19970;-78
2023/01/23 12:39:01;;;;;;;;;;;4.70;99.90;;;;;;5054877;28;19999;-79
2023/01/23 12:41:35;;;;;;;;;;;4.60;99.90;;;;;;5058607;28;20368;-79
2023/01/23 12:44:07;;;;;;;;;;;4.60;99.90;;;;;;5057100;28;19921;-78
2023/01/23 12:46:42;;;;;;;;;;;5.10;99.90;;;;;;5024841;28;19975;-81
2023/01/23 12:49:17;;;;;;;;;;;4.60;99.90;;;;;;5032693;28;19925;-79
2023/01/23 12:51:46;;;;;;;;;;;4.60;99.90;;;;;;5062198;28;20007;-78
2023/01/23 12:54:15;;;;;;;;;;;6.30;99.90;;;;;;5059866;28;19942;-78
2023/01/23 12:56:41;;;;;;;;;;;5.10;99.90;;;;;;5060273;28;19968;-79
2023/01/23 12:59:14;;;;;;;;;;;7.00;99.90;;;;;;5061615;28;19987;-80
2023/01/23 13:01:42;;;;;;;;;;;4.50;99.90;;;;;;5026526;28;20363;-80
2023/01/23 13:04:14;;;;;;;;;;;4.80;99.90;;;;;;5061171;28;19927;-83
2023/01/23 13:07:09;;;;;;;;;;;5.60;99.90;;;;;;5042318;28;19925;-81
2023/01/23 13:10:02;;;;;;;;;;;4.70;99.90;;;;;;5039263;28;19947;-83
2023/01/23 13:12:28;;;;;;;;;;;4.60;99.90;;;;;;5065232;28;19920;-82
2023/01/23 13:15:13;;;;;;;;;;;6.40;99.90;;;;;;5059471;28;19921;-81
2023/01/23 13:17:50;;;;;;;;;;;4.50;99.90;;;;;;5059228;28;19924;-80
2023/01/23 13:23:18;;;;;;;;;;;4.50;99.90;;;;;;5053497;28;19968;-82
2023/01/23 13:25:44;;;;;;;;;;;4.50;99.90;;;;;;5062714;28;19921;-81
2023/01/23 13:28:21;;;;;;;;;;;4.40;99.90;;;;;;5063219;28;20386;-77
2023/01/23 13:30:58;;;;;;;;;;;4.40;99.90;;;;;;5058165;28;20015;-82
2023/01/23 13:33:32;;;;;;;;;;;4.00;99.90;;;;;;5064194;28;19920;-78
2023/01/23 13:36:19;;;;;;;;;;;4.30;99.90;;;;;;5064012;28;19924;-77
2023/01/23 13:38:59;;;;;;;;;;;4.30;99.90;;;;;;5036336;28;19921;-80
2023/01/23 13:41:28;;;;;;;;;;;4.30;99.90;;;;;;5059989;28;19920;-80
2023/01/23 13:44:16;;;;;;;;;;;4.20;99.90;;;;;;5055423;28;20351;-80
2023/01/23 13:47:01;;;;;;;;;;;4.20;99.90;;;;;;5034507;28;19924;-81
2023/01/23 13:49:51;;;;;;;;;;;4.20;99.90;;;;;;5033425;28;19963;-80
2023/01/23 13:57:58;;;;;;;;;;;4.20;99.90;;;;;;5058770;28;19984;-77
2023/01/23 14:00:23;;;;;;;;;;;5.10;99.90;;;;;;5064206;28;20061;-86
2023/01/23 14:05:39;;;;;;;;;;;4.20;99.90;;;;;;5059013;28;19955;-76
2023/01/23 14:08:06;;;;;;;;;;;4.20;99.90;;;;;;5040380;28;20341;-76
2023/01/23 14:10:35;;;;;;;;;;;4.10;99.90;;;;;;5045876;28;20269;-78
2023/01/23 14:13:18;;;;;;;;;;;4.20;99.90;;;;;;5063796;28;20412;-78
2023/01/23 14:18:31;;;;;;;;;;;4.20;99.90;;;;;;5063174;28;19928;-79
2023/01/23 14:21:01;;;;;;;;;;;4.20;99.90;;;;;;5032660;28;19927;-79
2023/01/23 14:23:29;;;;;;;;;;;4.20;99.90;;;;;;5037947;28;19924;-77
2023/01/23 14:25:55;;;;;;;;;;;4.20;99.90;;;;;;5022932;28;20386;-77
2023/01/23 14:28:20;;;;;;;;;;;4.10;99.90;;;;;;5032439;28;19920;-77
2023/01/23 14:31:15;;;;;;;;;;;4.10;99.90;;;;;;5026829;28;19928;-77
2023/01/23 14:33:42;;;;;;;;;;;4.00;99.90;;;;;;5042725;28;20319;-75
2023/01/23 14:36:15;;;;;;;;;;;4.90;99.90;;;;;;5035118;28;20317;-75
2023/01/23 14:38:42;;;;;;;;;;;4.00;99.90;;;;;;5058702;28;19924;-76
2023/01/23 14:41:07;;;;;;;;;;;6.00;99.90;;;;;;5045727;28;19920;-76
2023/01/23 14:43:34;;;;;;;;;;;5.50;99.90;;;;;;5050764;28;19997;-77
2023/01/23 14:46:05;;;;;;;;;;;3.90;99.90;;;;;;5047248;28;19928;-78
2023/01/23 14:48:32;;;;;;;;;;;3.90;99.90;;;;;;5040431;28;19921;-80
2023/01/23 14:51:06;;;;;;;;;;;5.30;99.90;;;;;;5041380;28;20028;-77
2023/01/23 14:53:32;;;;;;;;;;;3.80;99.90;;;;;;5042390;28;19920;-77
2023/01/23 14:56:00;;;;;;;;;;;3.90;99.90;;;;;;5022779;28;19920;-78
2023/01/23 14:58:29;;;;;;;;;;;4.80;99.90;;;;;;5041145;28;19925;-77
2023/01/23 15:00:55;;;;;;;;;;;5.40;99.90;;;;;;5023758;28;20272;-75
2023/01/23 15:03:53;;;;;;;;;;;3.80;99.90;;;;;;5041835;28;19982;-77